Time;durP1;ratioP1;P1;durP2;ratioP2;P2;SDS_P1;SDS_P2;PMS_P1;PMS_P2;Temp;Humidity;BMP_temperature;BMP_pressure;BME280_temperature;BME280_humidity;BME280_pressure;Samples;Min_cycle;Max_cycle;Signal;HPM_P1;HPM_P2
2022/02/22 00:01:35;;;;;;;24.67;17.37;;;;;;;13.53;47.40;93899.78;4951089;29;20454;-68
2022/02/22 00:04:02;;;;;;;22.10;15.87;;;;;;;14.15;46.01;93902.28;4950750;29;20424;-67
2022/02/22 00:06:29;;;;;;;20.43;15.33;;;;;;;13.83;46.78;93888.59;4951318;29;20453;-67
2022/02/22 00:08:56;;;;;;;22.63;15.87;;;;;;;14.13;46.02;93886.00;4950813;29;20443;-67
2022/02/22 00:11:23;;;;;;;22.17;16.60;;;;;;;14.02;46.35;93873.38;4950972;28;20850;-66
2022/02/22 00:13:50;;;;;;;21.57;15.53;;;;;;;13.39;47.72;93893.81;4953912;29;20466;-67
2022/02/22 00:16:17;;;;;;;24.73;16.30;;;;;;;13.45;48.19;93882.09;4954595;29;20451;-68
2022/02/22 00:18:44;;;;;;;24.40;16.70;;;;;;;13.83;46.93;93867.53;4954147;29;20486;-67
2022/02/22 00:21:13;;;;;;;21.90;16.20;;;;;;;13.99;46.86;93866.06;4954537;29;20454;-66
2022/02/22 00:23:40;;;;;;;25.43;16.57;;;;;;;13.82;47.17;93860.69;4954068;29;20435;-67
2022/02/22 00:26:07;;;;;;;25.13;16.57;;;;;;;14.13;46.67;93866.78;4954227;29;20853;-68
2022/02/22 00:28:34;;;;;;;26.90;17.57;;;;;;;14.27;46.29;93862.22;4953892;29;20954;-66
2022/02/22 00:31:01;;;;;;;21.23;16.23;;;;;;;14.36;45.65;93867.53;4937675;29;20471;-68
2022/02/22 00:33:28;;;;;;;19.60;15.93;;;;;;;14.62;45.48;93863.94;4955085;29;20989;-67
2022/02/22 00:35:56;;;;;;;21.80;16.43;;;;;;;14.55;45.29;93862.81;4954462;29;20541;-67
2022/02/22 00:38:23;;;;;;;24.97;16.30;;;;;;;14.24;45.81;93841.72;4954111;29;20518;-66
2022/02/22 00:40:50;;;;;;;19.77;16.10;;;;;;;14.50;45.82;93855.81;4954259;29;20431;-66
2022/02/22 00:43:18;;;;;;;24.40;17.27;;;;;;;14.62;45.84;93858.66;4937696;29;20455;-67
2022/02/22 00:45:44;;;;;;;21.67;16.27;;;;;;;14.65;45.13;93860.66;4953394;29;20820;-69
2022/02/22 00:48:11;;;;;;;24.73;15.87;;;;;;;14.68;45.49;93852.16;4954269;29;20522;-67
2022/02/22 00:50:39;;;;;;;24.57;16.97;;;;;;;14.88;45.06;93856.88;4953697;29;20431;-67
2022/02/22 00:53:06;;;;;;;22.47;16.23;;;;;;;14.83;45.21;93859.66;4954292;29;20514;-67
2022/02/22 00:55:33;;;;;;;22.27;16.23;;;;;;;14.80;45.34;93849.72;4953879;29;20454;-67
2022/02/22 00:58:00;;;;;;;22.90;15.33;;;;;;;14.81;45.12;93856.56;4954064;29;20467;-67
2022/02/22 01:00:26;;;;;;;22.97;15.80;;;;;;;14.67;45.62;93855.88;4953922;29;20452;-66
2022/02/22 01:02:54;;;;;;;21.37;16.13;;;;;;;14.73;45.48;93854.66;4953938;29;20778;-67
2022/02/22 01:05:21;;;;;;;21.40;17.13;;;;;;;14.40;46.18;93856.06;4953129;29;20997;-67
2022/02/22 01:07:48;;;;;;;21.77;15.43;;;;;;;14.44;46.13;93846.50;4953689;29;20784;-66
2022/02/22 01:10:15;;;;;;;25.20;16.47;;;;;;;14.47;46.28;93840.59;4953396;29;20439;-67
2022/02/22 01:12:42;;;;;;;21.27;15.70;;;;;;;14.81;45.45;93846.00;4953843;29;21333;-67
2022/02/22 01:15:09;;;;;;;23.00;16.90;;;;;;;14.93;45.50;93840.91;4952843;29;20467;-67
2022/02/22 01:17:36;;;;;;;20.90;16.20;;;;;;;14.84;45.23;93824.28;4953575;29;20446;-68
2022/02/22 01:20:07;;;;;;;22.33;16.13;;;;;;;14.88;45.53;93830.50;4953913;29;20475;-66
2022/02/22 01:22:35;;;;;;;21.33;16.07;;;;;;;14.85;45.08;93825.81;4953685;29;20839;-67
2022/02/22 01:25:05;;;;;;;24.03;16.13;;;;;;;14.46;46.29;93836.44;4951999;28;20451;-68
2022/02/22 01:27:32;;;;;;;21.67;16.43;;;;;;;14.62;46.58;93816.47;4953637;29;20451;-68
2022/02/22 01:29:58;;;;;;;21.30;16.77;;;;;;;14.95;45.22;93835.31;4952627;29;20958;-68
2022/02/22 01:32:26;;;;;;;22.30;16.67;;;;;;;14.92;45.29;93830.66;4953363;29;20450;-66
2022/02/22 01:34:53;;;;;;;22.00;16.80;;;;;;;14.74;46.38;93840.41;4952675;29;20879;-67
2022/02/22 01:37:19;;;;;;;22.90;16.93;;;;;;;14.56;47.29;93844.03;4952896;29;20452;-66
2022/02/22 01:39:46;;;;;;;24.37;17.20;;;;;;;14.65;46.75;93842.22;4952808;29;20478;-68
2022/02/22 01:42:13;;;;;;;20.90;16.90;;;;;;;15.16;45.37;93829.16;4953085;29;20442;-67
2022/02/22 01:44:40;;;;;;;23.37;16.90;;;;;;;15.45;44.77;93835.72;4952650;29;20530;-68
2022/02/22 01:47:08;;;;;;;23.40;17.07;;;;;;;15.42;44.94;93845.03;4953512;29;20432;-65
2022/02/22 01:49:35;;;;;;;21.97;17.13;;;;;;;15.53;44.58;93845.53;4952585;29;20440;-67
2022/02/22 01:52:03;;;;;;;25.27;17.50;;;;;;;15.64;44.99;93841.44;4953245;29;20448;-68
2022/02/22 01:54:30;;;;;;;24.13;17.77;;;;;;;15.82;43.89;93843.00;4952566;29;20428;-68
2022/02/22 01:56:57;;;;;;;22.83;18.63;;;;;;;15.58;44.85;93843.50;4952898;29;22013;-69
2022/02/22 01:59:24;;;;;;;24.67;19.80;;;;;;;15.56;44.84;93832.47;4952252;29;21023;-68
2022/02/22 02:01:51;;;;;;;24.67;20.13;;;;;;;15.11;46.17;93845.13;4952852;29;20444;-68
2022/02/22 02:04:19;;;;;;;29.93;18.73;;;;;;;15.18;45.41;93839.41;4952044;29;20443;-67
2022/02/22 02:06:46;;;;;;;28.23;21.43;;;;;;;15.18;46.32;93840.16;4952981;29;20440;-68
2022/02/22 02:09:13;;;;;;;29.63;21.80;;;;;;;15.41;45.42;93847.97;4952458;29;20446;-67
2022/02/22 02:11:47;;;;;;;29.37;21.07;;;;;;;15.22;45.66;93851.66;4952637;29;20439;-68
2022/02/22 02:14:15;;;;;;;26.77;21.70;;;;;;;14.87;46.99;93855.31;4951950;29;20479;-69
2022/02/22 02:16:43;;;;;;;29.40;21.27;;;;;;;13.81;50.22;93859.91;4935533;29;20455;-68
2022/02/22 02:19:15;;;;;;;27.97;20.63;;;;;;;14.67;48.26;93858.50;4952013;29;20495;-69
2022/02/22 02:21:43;;;;;;;30.10;21.07;;;;;;;14.84;48.13;93863.84;4952550;29;20477;-70
2022/02/22 02:24:21;;;;;;;28.33;21.00;;;;;;;15.19;46.33;93852.28;4951933;29;20436;-68
2022/02/22 02:26:50;;;;;;;29.60;21.63;;;;;;;15.03;47.21;93859.09;4952527;29;20494;-69
2022/02/22 02:29:21;;;;;;;27.77;20.20;;;;;;;15.36;46.30;93845.47;4952336;29;20436;-70
2022/02/22 02:31:51;;;;;;;31.87;21.43;;;;;;;15.31;46.54;93856.19;4951969;29;20450;-67
2022/02/22 02:34:23;;;;;;;29.43;20.33;;;;;;;15.32;46.19;93839.25;4952310;28;20451;-68
2022/02/22 02:36:50;;;;;;;27.57;19.63;;;;;;;15.47;45.87;93847.53;4952644;29;20451;-67
2022/02/22 02:39:17;;;;;;;24.93;18.90;;;;;;;15.32;46.11;93860.38;4952918;29;20483;-68
2022/02/22 02:41:46;;;;;;;25.10;19.73;;;;;;;15.48;46.12;93853.56;4953226;29;20959;-69
2022/02/22 02:44:16;;;;;;;28.43;19.57;;;;;;;15.38;46.17;93853.88;4952730;29;20443;-71
2022/02/22 02:46:44;;;;;;;26.67;20.67;;;;;;;15.19;47.20;93857.56;4952119;29;20432;-68
2022/02/22 02:49:13;;;;;;;23.43;19.07;;;;;;;15.51;46.13;93863.53;4951953;29;20453;-68
2022/02/22 02:51:40;;;;;;;28.83;21.30;;;;;;;15.61;46.09;93863.22;4953098;29;20451;-67
2022/02/22 02:54:08;;;;;;;28.00;20.53;;;;;;;15.60;46.25;93867.69;4954973;29;20443;-67
2022/02/22 02:56:36;;;;;;;30.27;20.20;;;;;;;15.55;45.70;93848.59;4951934;29;21041;-68
2022/02/22 02:59:06;;;;;;;26.17;19.67;;;;;;;15.64;45.89;93863.34;4953073;29;20573;-66
2022/02/22 03:01:34;;;;;;;27.30;20.20;;;;;;;15.45;46.15;93848.91;4956258;29;20444;-67
2022/02/22 03:04:03;;;;;;;30.77;20.37;;;;;;;15.52;46.13;93859.78;4956013;29;20447;-69
2022/02/22 03:06:30;;;;;;;29.53;19.47;;;;;;;15.54;46.01;93854.97;4955752;29;20451;-66
2022/02/22 03:08:57;;;;;;;27.60;19.23;;;;;;;15.40;46.56;93856.97;4956055;29;20455;-66
2022/02/22 03:11:25;;;;;;;27.20;19.80;;;;;;;15.37;46.43;93847.00;4958712;29;20847;-65
2022/02/22 03:13:52;;;;;;;28.50;19.93;;;;;;;15.51;46.14;93850.34;4956293;29;20794;-68
2022/02/22 03:16:20;;;;;;;31.53;20.93;;;;;;;14.41;48.58;93849.75;4956307;29;20943;-69
2022/02/22 03:18:47;;;;;;;27.70;18.83;;;;;;;14.86;48.01;93853.00;4951912;29;20537;-68
2022/02/22 03:21:14;;;;;;;28.23;21.27;;;;;;;14.66;48.14;93862.25;4952182;29;20430;-68
2022/02/22 03:23:42;;;;;;;26.60;19.27;;;;;;;14.89;47.93;93858.44;4934470;29;20432;-66
2022/02/22 03:26:09;;;;;;;31.30;20.80;;;;;;;14.80;47.76;93862.91;4951459;29;20482;-66
2022/02/22 03:28:36;;;;;;;28.27;19.87;;;;;;;14.88;48.26;93864.00;4951369;29;20449;-67
2022/02/22 03:31:04;;;;;;;27.10;19.97;;;;;;;15.01;48.18;93866.53;4951396;29;20440;-67
2022/02/22 03:33:32;;;;;;;27.53;19.67;;;;;;;15.07;48.00;93862.66;4951002;29;20466;-68
2022/02/22 03:36:00;;;;;;;28.40;20.37;;;;;;;15.29;46.98;93866.28;4951462;29;20475;-67
2022/02/22 03:38:27;;;;;;;27.53;18.93;;;;;;;14.77;48.32;93866.16;4950812;29;20536;-69
2022/02/22 03:40:54;;;;;;;27.87;19.63;;;;;;;14.62;49.12;93871.84;4951303;29;20439;-67
2022/02/22 03:43:22;;;;;;;38.17;31.10;;;;;;;14.88;47.90;93875.34;4950799;29;20451;-68
2022/02/22 03:45:49;;;;;;;29.77;19.90;;;;;;;15.07;47.94;93859.25;4951045;29;20491;-71
2022/02/22 03:48:18;;;;;;;29.67;19.53;;;;;;;14.86;47.99;93859.03;4937055;29;20443;-68
2022/02/22 03:50:45;;;;;;;27.57;20.00;;;;;;;13.79;51.31;93872.63;4954729;29;20454;-66
2022/02/22 03:53:12;;;;;;;31.60;20.90;;;;;;;13.65;51.50;93863.97;4955253;29;20915;-67
2022/02/22 03:55:57;;;;;;;26.03;20.27;;;;;;;14.44;50.23;93877.34;4955019;29;20425;-67
2022/02/22 03:58:24;;;;;;;29.37;21.33;;;;;;;14.30;49.92;93881.91;4955383;29;20427;-66
2022/02/22 04:00:50;;;;;;;31.93;21.17;;;;;;;14.18;50.42;93887.72;4954953;29;20512;-66
2022/02/22 04:03:17;;;;;;;31.40;21.13;;;;;;;14.06;50.67;93876.97;4955242;29;20966;-68
2022/02/22 04:05:46;;;;;;;34.50;23.17;;;;;;;14.36;49.45;93872.81;4954417;29;20475;-69
2022/02/22 04:08:14;;;;;;;30.33;23.43;;;;;;;14.76;48.46;93875.13;4955688;29;20794;-68
2022/02/22 04:10:41;;;;;;;35.80;24.27;;;;;;;14.59;48.60;93869.81;4954413;29;20454;-68
2022/02/22 04:13:08;;;;;;;33.03;24.20;;;;;;;14.40;49.68;93871.88;4954894;29;20453;-68
2022/02/22 04:15:36;;;;;;;36.17;25.30;;;;;;;14.14;49.82;93882.25;4954078;29;21005;-66
2022/02/22 04:18:03;;;;;;;41.57;27.27;;;;;;;14.72;48.96;93882.13;4954303;29;20455;-67
2022/02/22 04:20:29;;;;;;;37.63;26.40;;;;;;;15.08;47.86;93884.53;4954120;29;20874;-66
2022/02/22 04:22:56;;;;;;;42.27;29.00;;;;;;;15.20;47.84;93874.16;4954657;29;20439;-69
2022/02/22 04:25:23;;;;;;;43.53;28.87;;;;;;;15.00;48.31;93886.06;4953975;29;20446;-67
2022/02/22 04:27:51;;;;;;;36.70;25.50;;;;;;;14.80;48.69;93881.34;4954935;29;20905;-69
2022/02/22 04:30:18;;;;;;;31.30;22.17;;;;;;;13.69;51.12;93879.94;4954407;29;20447;-67
2022/02/22 04:32:46;;;;;;;30.43;20.13;;;;;;;14.09;50.90;93892.16;4954472;29;20479;-69
2022/02/22 04:35:13;;;;;;;25.30;18.03;;;;;;;13.64;51.61;93890.59;4954435;29;20447;-67
2022/02/22 04:37:40;;;;;;;27.43;19.93;;;;;;;13.47;52.61;93903.59;4954368;29;20451;-66
2022/02/22 04:40:08;;;;;;;23.20;15.10;;;;;;;12.93;54.04;93918.38;4953927;29;20478;-66
2022/02/22 04:42:35;;;;;;;20.73;14.00;;;;;;;13.52;52.68;93914.03;4954038;29;20971;-68
2022/02/22 04:45:03;;;;;;;19.53;12.20;;;;;;;14.21;50.83;93901.06;4954264;29;20439;-67
2022/02/22 04:47:30;;;;;;;18.63;14.03;;;;;;;14.35;50.74;93927.38;4954545;29;20447;-67
2022/02/22 04:49:56;;;;;;;22.47;15.07;;;;;;;14.24;50.86;93920.75;4954094;29;20439;-68
2022/02/22 04:52:23;;;;;;;26.00;17.40;;;;;;;14.07;51.47;93931.19;4954126;29;20455;-67
2022/02/22 04:54:50;;;;;;;23.30;15.90;;;;;;;13.42;52.73;93936.09;4953624;29;20982;-68
2022/02/22 04:57:18;;;;;;;20.37;15.50;;;;;;;13.07;54.33;93940.22;4953939;29;20439;-70
2022/02/22 04:59:45;;;;;;;22.73;15.83;;;;;;;13.72;53.27;93945.19;4953737;28;20784;-69
2022/02/22 05:02:11;;;;;;;21.43;14.50;;;;;;;13.71;53.58;93949.66;4952206;28;20443;-68
2022/02/22 05:04:38;;;;;;;20.63;14.23;;;;;;;13.59;53.15;93951.25;4952194;28;20435;-68
2022/02/22 05:07:05;;;;;;;18.60;13.30;;;;;;;13.65;53.41;93944.81;4952483;28;20465;-69
2022/02/22 05:09:32;;;;;;;18.47;11.13;;;;;;;14.06;52.18;93953.34;4952698;28;20448;-68
2022/02/22 05:12:01;;;;;;;13.10;8.10;;;;;;;14.10;52.69;93956.94;4953586;28;20491;-66
2022/02/22 05:14:29;;;;;;;11.47;6.40;;;;;;;14.20;52.46;93956.69;4935818;29;20483;-71
2022/02/22 05:16:56;;;;;;;8.27;5.40;;;;;;;13.46;54.38;93976.53;4953195;28;20979;-70
2022/02/22 05:19:23;;;;;;;7.23;4.87;;;;;;;13.43;54.51;93981.59;4953124;29;21003;-68
2022/02/22 05:21:49;;;;;;;16.67;10.63;;;;;;;13.10;55.58;93988.84;4953539;28;20559;-68
2022/02/22 05:24:16;;;;;;;18.33;10.70;;;;;;;13.14;56.66;93981.91;4952995;29;20448;-70
2022/02/22 05:26:43;;;;;;;16.07;10.40;;;;;;;13.61;55.84;93980.69;4953297;29;20954;-71
2022/02/22 05:29:14;;;;;;;16.10;10.27;;;;;;;13.87;55.26;93969.31;4951831;29;20432;-69
2022/02/22 05:31:41;;;;;;;10.53;7.53;;;;;;;14.20;54.11;93981.19;4952483;29;20443;-69
2022/02/22 05:34:08;;;;;;;10.13;7.20;;;;;;;14.43;53.01;93971.47;4952849;29;20454;-69
2022/02/22 05:36:35;;;;;;;11.27;5.70;;;;;;;14.16;53.43;93956.50;4953009;29;20439;-70
2022/02/22 05:39:03;;;;;;;8.57;5.93;;;;;;;14.50;52.79;93969.16;4953010;29;20970;-70
2022/02/22 05:41:33;;;;;;;9.07;5.73;;;;;;;14.19;53.62;93965.69;4953419;29;20873;-71
2022/02/22 05:44:00;;;;;;;6.90;5.50;;;;;;;13.36;55.94;93973.34;4951622;28;20604;-71
2022/02/22 05:46:27;;;;;;;12.03;6.50;;;;;;;14.14;54.56;93979.72;4952975;29;20465;-71
2022/02/22 05:48:54;;;;;;;10.53;6.27;;;;;;;14.14;53.90;93968.44;4952251;29;20439;-72
2022/02/22 05:51:21;;;;;;;42.13;30.70;;;;;;;14.43;53.50;93963.56;4953224;29;20452;-76
2022/02/22 05:53:48;;;;;;;44.27;34.17;;;;;;;14.55;52.84;93965.63;4956039;29;20454;-74
2022/02/22 05:56:15;;;;;;;18.67;10.50;;;;;;;14.58;53.29;93978.22;4953608;29;20519;-72
2022/02/22 05:58:42;;;;;;;8.03;5.57;;;;;;;14.37;53.42;93985.81;4952573;29;20451;-74
2022/02/22 06:01:09;;;;;;;7.60;5.37;;;;;;;14.68;51.88;93968.19;4952467;29;20487;-75
2022/02/22 06:03:36;;;;;;;12.13;6.37;;;;;;;14.72;52.06;93984.19;4951197;29;20439;-69
2022/02/22 06:06:03;;;;;;;10.07;6.27;;;;;;;14.80;51.77;93986.84;4952506;29;20536;-71
2022/02/22 06:08:29;;;;;;;13.33;8.47;;;;;;;14.84;52.33;93987.81;4952322;29;20522;-72
2022/02/22 06:10:56;;;;;;;33.63;25.73;;;;;;;14.91;53.32;93993.41;4952011;28;20887;-71
2022/02/22 06:13:23;;;;;;;9.20;6.40;;;;;;;14.80;52.72;93986.06;4952620;29;20439;-72
2022/02/22 06:15:50;;;;;;;8.77;6.23;;;;;;;14.67;53.49;93989.59;4951896;29;20820;-71
2022/02/22 06:18:19;;;;;;;9.60;6.70;;;;;;;14.68;53.05;93976.09;4952497;29;20448;-71
2022/02/22 06:20:47;;;;;;;10.40;7.80;;;;;;;14.69;52.58;93984.78;4934649;29;20510;-72
2022/02/22 06:23:14;;;;;;;11.57;7.00;;;;;;;14.35;53.02;93990.63;4952598;29;20494;-71
2022/02/22 06:25:41;;;;;;;9.03;7.00;;;;;;;13.82;53.86;93977.31;4951345;28;20607;-71
2022/02/22 06:28:08;;;;;;;10.17;6.90;;;;;;;13.42;55.72;93959.75;4952573;29;20455;-71
2022/02/22 06:30:36;;;;;;;9.97;7.20;;;;;;;14.17;54.60;93991.53;4952149;28;20471;-72
2022/02/22 06:33:03;;;;;;;14.03;8.53;;;;;;;14.43;53.36;93982.00;4952296;29;20444;-70
2022/02/22 06:35:31;;;;;;;11.77;7.43;;;;;;;14.67;52.22;93998.25;4952271;29;20436;-74
2022/02/22 06:37:59;;;;;;;13.80;8.23;;;;;;;14.52;54.52;93988.09;4950590;29;20430;-73
2022/02/22 06:40:27;;;;;;;9.73;7.30;;;;;;;14.85;52.57;93989.34;4949613;29;20487;-73
2022/02/22 06:42:54;;;;;;;13.27;7.60;;;;;;;14.90;52.76;93991.88;4951012;29;20900;-70
2022/02/22 06:45:22;;;;;;;9.57;7.20;;;;;;;14.58;53.14;93994.78;4950302;29;20438;-73
2022/02/22 06:47:49;;;;;;;11.17;7.00;;;;;;;14.37;53.47;93992.94;4950346;29;20448;-68
2022/02/22 06:50:16;;;;;;;9.53;7.60;;;;;;;14.32;54.16;93991.22;4951777;29;20443;-71
2022/02/22 06:52:43;;;;;;;10.33;7.10;;;;;;;14.47;53.76;93992.72;4951907;29;20446;-72
2022/02/22 06:55:12;;;;;;;12.03;8.20;;;;;;;14.34;54.72;93983.81;4951713;29;20488;-71
2022/02/22 06:57:40;;;;;;;11.97;7.73;;;;;;;14.31;54.10;93994.91;4952087;29;20444;-74
2022/02/22 07:00:11;;;;;;;12.93;7.93;;;;;;;14.56;53.27;93986.41;4952640;29;20482;-72
2022/02/22 07:02:39;;;;;;;10.07;7.57;;;;;;;14.47;53.56;93982.94;4953196;29;20443;-69
2022/02/22 07:05:07;;;;;;;14.43;9.10;;;;;;;14.68;53.37;93984.00;4951257;29;20435;-74
2022/02/22 07:07:35;;;;;;;13.83;8.87;;;;;;;14.56;54.21;93975.84;4951134;29;20443;-70
2022/02/22 07:10:03;;;;;;;13.87;8.80;;;;;;;14.43;54.71;93987.28;4951418;29;20453;-68
2022/02/22 07:12:35;;;;;;;12.93;9.63;;;;;;;14.08;53.94;93986.22;4952074;29;20459;-74
2022/02/22 07:15:03;;;;;;;13.47;9.47;;;;;;;14.23;54.51;93990.34;4950976;29;20474;-72
2022/02/22 07:17:30;;;;;;;12.30;9.73;;;;;;;14.23;53.82;93974.56;4951348;29;20957;-72
2022/02/22 07:19:57;;;;;;;13.60;10.53;;;;;;;14.44;53.71;93977.47;4950934;29;20475;-73
2022/02/22 07:22:24;;;;;;;13.33;10.87;;;;;;;14.43;54.04;93976.72;4951415;29;20439;-72
2022/02/22 07:24:51;;;;;;;13.60;10.20;;;;;;;14.74;53.47;93982.81;4951430;29;20981;-72
2022/02/22 07:27:17;;;;;;;14.20;11.17;;;;;;;14.75;53.72;93979.06;4951653;29;20439;-70
2022/02/22 07:29:44;;;;;;;13.33;9.57;;;;;;;15.33;52.40;93984.09;4951197;29;20464;-74
2022/02/22 07:32:11;;;;;;;12.30;8.90;;;;;;;14.77;52.12;93995.38;4951318;29;20834;-73
2022/02/22 07:34:40;;;;;;;10.73;7.83;;;;;;;14.16;52.86;93992.59;4950804;29;20439;-71
2022/02/22 07:37:07;;;;;;;11.03;8.93;;;;;;;14.50;53.43;93992.91;4951366;29;20450;-71
2022/02/22 07:39:34;;;;;;;15.37;9.83;;;;;;;14.55;52.64;93998.03;4951063;29;20450;-70
2022/02/22 07:42:01;;;;;;;18.27;10.83;;;;;;;14.09;54.59;94002.78;4951129;29;20534;-70
2022/02/22 07:44:28;;;;;;;14.63;9.97;;;;;;;14.07;53.88;94000.44;4950977;29;20444;-73
2022/02/22 07:46:55;;;;;;;14.57;9.43;;;;;;;13.52;55.98;94004.28;4951321;29;20443;-75
2022/02/22 07:49:22;;;;;;;10.10;7.87;;;;;;;13.16;55.40;93977.91;4950928;29;20446;-72
2022/02/22 07:52:09;;;;;;;10.30;7.87;;;;;;;13.87;54.87;94005.38;4951310;29;20529;-67
2022/02/22 07:54:36;;;;;;;12.87;8.93;;;;;;;13.52;54.52;93972.69;4951242;29;20542;-73
2022/02/22 07:57:04;;;;;;;11.63;7.73;;;;;;;14.16;53.75;94014.47;4951165;29;20443;-75
2022/02/22 07:59:31;;;;;;;8.67;7.40;;;;;;;13.83;54.42;94004.44;4951245;29;20455;-76
2022/02/22 08:01:58;;;;;;;15.23;9.17;;;;;;;13.45;54.77;94003.91;4951462;29;20432;-72
2022/02/22 08:04:27;;;;;;;11.60;8.37;;;;;;;14.00;53.90;93999.31;4950967;29;20451;-72
2022/02/22 08:06:55;;;;;;;10.13;7.70;;;;;;;14.37;53.61;93996.38;4951214;29;20428;-76
2022/02/22 08:09:22;;;;;;;8.43;7.30;;;;;;;14.66;52.17;93996.69;4951259;29;20465;-72
2022/02/22 08:11:50;;;;;;;9.50;7.13;;;;;;;14.40;51.93;93987.84;4951372;29;20443;-71
2022/02/22 08:14:17;;;;;;;14.60;7.43;;;;;;;15.05;50.80;93999.38;4950801;29;20475;-71
2022/02/22 08:16:44;;;;;;;8.60;6.00;;;;;;;15.22;51.00;93999.44;4933884;29;20458;-70
2022/02/22 08:19:12;;;;;;;5.97;5.10;;;;;;;15.38;49.48;93983.19;4950723;29;20442;-72
2022/02/22 08:21:39;;;;;;;8.80;5.80;;;;;;;15.56;49.48;94003.31;4950886;29;20577;-71
2022/02/22 08:24:06;;;;;;;8.70;5.37;;;;;;;15.07;50.54;94001.72;4951001;29;20451;-69
2022/02/22 08:26:36;;;;;;;10.37;6.93;;;;;;;14.97;50.07;93996.69;4951402;29;20557;-72
2022/02/22 08:29:03;;;;;;;9.60;6.57;;;;;;;14.69;49.88;94011.91;4950873;29;20526;-72
2022/02/22 08:31:30;;;;;;;9.40;7.63;;;;;;;14.64;51.76;94004.13;4950863;29;20474;-71
2022/02/22 08:33:58;;;;;;;9.67;8.17;;;;;;;14.63;53.31;94010.50;4936087;29;20529;-71
2022/02/22 08:36:27;;;;;;;10.40;9.00;;;;;;;15.06;51.10;94008.06;4955137;29;20439;-71
2022/02/22 08:38:58;;;;;;;14.63;9.53;;;;;;;14.78;52.09;93999.56;4954195;29;20974;-71
2022/02/22 08:41:26;;;;;;;15.80;11.20;;;;;;;14.72;52.47;94006.06;4937210;29;21006;-72
2022/02/22 08:43:54;;;;;;;19.60;14.73;;;;;;;15.33;51.27;94026.34;4954386;29;20439;-71
2022/02/22 08:46:21;;;;;;;20.57;16.07;;;;;;;15.02;52.54;94023.72;4954399;29;20432;-71
2022/02/22 08:48:48;;;;;;;22.53;17.27;;;;;;;14.85;51.56;94025.50;4955244;29;20538;-74
2022/02/22 08:51:16;;;;;;;21.90;17.87;;;;;;;14.44;52.89;94020.44;4956793;29;20463;-70
2022/02/22 08:53:44;;;;;;;21.83;17.77;;;;;;;14.84;51.96;94024.72;4958204;29;20856;-69
2022/02/22 08:56:11;;;;;;;22.10;17.13;;;;;;;14.48;52.20;94034.59;4954491;29;20811;-72
2022/02/22 08:58:38;;;;;;;21.80;17.63;;;;;;;14.94;51.56;94029.72;4953680;29;20450;-73
2022/02/22 09:01:07;;;;;;;20.63;16.50;;;;;;;14.83;51.72;94040.84;4954015;29;20546;-74
2022/02/22 09:03:34;;;;;;;24.30;12.87;;;;;;;14.67;51.85;94039.69;4953676;29;20450;-73
2022/02/22 09:06:03;;;;;;;16.07;12.30;;;;;;;14.83;51.50;94039.00;4953793;29;20440;-71
2022/02/22 09:08:31;;;;;;;13.73;11.37;;;;;;;15.03;50.71;94043.78;4953664;29;20534;-71
2022/02/22 09:10:58;;;;;;;12.43;10.67;;;;;;;15.23;50.35;94037.97;4954348;29;20894;-70
2022/02/22 09:13:30;;;;;;;15.80;9.90;;;;;;;14.97;51.38;94042.34;4952931;29;20455;-71
2022/02/22 09:15:57;;;;;;;9.47;8.30;;;;;;;15.07;50.84;94054.50;4953931;29;20510;-72
2022/02/22 09:18:25;;;;;;;20.87;10.77;;;;;;;14.64;50.47;94059.50;4953744;29;20444;-72
2022/02/22 09:20:52;;;;;;;14.43;9.97;;;;;;;14.52;50.73;94066.41;4953546;29;20486;-72
2022/02/22 09:23:19;;;;;;;10.30;8.10;;;;;;;14.15;53.04;94072.72;4954128;29;21007;-69
2022/02/22 09:25:46;;;;;;;11.17;6.80;;;;;;;14.17;53.03;94076.63;4953086;29;20447;-71
2022/02/22 09:28:13;;;;;;;11.47;8.37;;;;;;;14.44;52.28;94070.53;4953815;29;20551;-72
2022/02/22 09:30:40;;;;;;;14.70;11.03;;;;;;;14.43;52.13;94074.25;4953607;29;20452;-71
2022/02/22 09:33:09;;;;;;;16.53;11.43;;;;;;;13.74;52.89;94085.19;4953422;29;20443;-70
2022/02/22 09:35:38;;;;;;;14.33;11.33;;;;;;;13.31;53.68;94094.44;4936092;29;20435;-68
2022/02/22 09:38:05;;;;;;;16.77;10.30;;;;;;;13.04;53.11;94093.34;4953411;29;20435;-71
2022/02/22 09:40:32;;;;;;;10.67;9.00;;;;;;;12.16;55.24;94082.09;4953224;29;20482;-69
2022/02/22 09:43:00;;;;;;;12.17;9.07;;;;;;;12.33;54.73;94098.13;4953435;29;20546;-74
2022/02/22 09:45:28;;;;;;;11.80;8.90;;;;;;;12.51;54.73;94099.16;4951546;28;20443;-70
2022/02/22 09:47:57;;;;;;;13.17;8.47;;;;;;;12.07;55.47;94099.53;4953237;29;20443;-71
2022/02/22 09:50:24;;;;;;;12.40;8.27;;;;;;;12.34;54.04;94114.66;4952429;29;20478;-72
2022/02/22 09:52:51;;;;;;;10.87;7.37;;;;;;;11.89;54.37;94116.06;4953450;29;20465;-66
2022/02/22 09:55:19;;;;;;;7.57;6.67;;;;;;;11.80;55.26;94112.50;4952841;29;20478;-71
2022/02/22 09:57:52;;;;;;;6.50;5.70;;;;;;;12.06;53.67;94119.00;4953155;29;20871;-71
2022/02/22 10:00:25;;;;;;;8.33;5.57;;;;;;;10.85;55.96;94129.97;4952404;29;20455;-70
2022/02/22 10:02:53;;;;;;;11.83;6.33;;;;;;;11.31;54.66;94130.34;4935287;29;20450;-68
2022/02/22 10:05:25;;;;;;;6.77;5.27;;;;;;;11.41;54.71;94140.72;4952778;29;20459;-69
2022/02/22 10:08:03;;;;;;;7.20;5.60;;;;;;;11.21;55.01;94134.63;4952934;29;20420;-69
2022/02/22 10:10:37;;;;;;;9.07;5.47;;;;;;;11.41;54.22;94143.34;4952532;29;20439;-72
2022/02/22 10:13:06;;;;;;;5.80;4.87;;;;;;;10.98;55.11;94152.94;4952886;29;20997;-71
2022/02/22 10:15:42;;;;;;;6.57;4.70;;;;;;;10.58;55.20;94151.41;4952083;29;20479;-70
2022/02/22 10:18:11;;;;;;;9.10;4.37;;;;;;;10.81;55.33;94158.56;4952526;29;20475;-73
2022/02/22 10:20:39;;;;;;;7.15;4.30;;;;;;;10.36;56.94;94164.13;4952849;29;21317;-72
2022/02/22 10:23:07;;;;;;;4.37;3.97;;;;;;;10.22;56.36;94168.38;4952310;29;20577;-72
2022/02/22 10:25:36;;;;;;;5.13;4.20;;;;;;;9.51;57.80;94161.84;4952270;29;20451;-70
2022/02/22 10:28:05;;;;;;;9.77;4.60;;;;;;;9.93;57.31;94175.28;4952687;29;20440;-75
2022/02/22 10:30:38;;;;;;;5.18;4.43;;;;;;;9.95;57.49;94175.81;4952152;29;20271;-71
2022/02/22 10:33:15;;;;;;;4.88;3.97;;;;;;;10.01;56.21;94193.06;4952300;29;20204;-70
2022/02/22 10:35:46;;;;;;;5.88;4.22;;;;;;;10.29;56.43;94192.44;4952132;29;20903;-69
2022/02/22 10:38:20;;;;;;;8.85;4.88;;;;;;;9.50;57.04;94192.44;4952415;29;20203;-69
2022/02/22 10:41:15;;;;;;;6.45;4.93;;;;;;;10.03;56.46;94196.19;4952108;29;20211;-71
2022/02/22 10:43:54;;;;;;;6.45;5.28;;;;;;;9.90;57.18;94186.31;4953063;29;20367;-72
2022/02/22 10:46:37;;;;;;;4.97;4.25;;;;;;;10.03;56.88;94190.97;4952142;29;20208;-71
2022/02/22 10:49:12;;;;;;;5.35;4.00;;;;;;;9.18;57.62;94197.97;4951866;29;20192;-74
2022/02/22 10:51:45;;;;;;;5.43;4.25;;;;;;;9.46;56.84;94195.84;4951903;29;20295;-64
2022/02/22 10:54:16;;;;;;;6.00;4.80;;;;;;;10.21;56.31;94193.00;4951638;29;20196;-68
2022/02/22 10:56:45;;;;;;;5.65;4.25;;;;;;;9.65;57.27;94204.72;4951579;28;20273;-68
2022/02/22 10:59:21;;;;;;;6.85;3.90;;;;;;;9.39;57.22;94188.28;4951457;29;20194;-71
2022/02/22 11:01:50;;;;;;;6.57;4.00;;;;;;;9.21;57.70;94207.91;4951523;29;20224;-73
2022/02/22 11:04:17;;;;;;;5.10;4.20;;;;;;;9.04;58.47;94199.56;4951912;29;20286;-72
2022/02/22 11:06:44;;;;;;;5.50;3.78;;;;;;;8.67;59.28;94193.81;4952173;29;20290;-68
2022/02/22 11:09:17;;;;;;;4.72;3.90;;;;;;;8.84;59.34;94194.34;4951634;29;20619;-69
2022/02/22 11:11:59;;;;;;;5.30;3.45;;;;;;;8.56;59.25;94197.44;4951869;29;20262;-67
2022/02/22 11:14:33;;;;;;;8.10;3.03;;;;;;;8.66;59.11;94207.91;4951171;29;20721;-70
2022/02/22 11:17:13;;;;;;;6.72;3.58;;;;;;;8.82;58.10;94201.66;4951957;29;20234;-72
2022/02/22 11:19:41;;;;;;;6.30;3.40;;;;;;;8.79;58.17;94199.56;4951600;29;20211;-73
2022/02/22 11:22:19;;;;;;;3.83;3.38;;;;;;;8.89;58.26;94199.56;4951869;29;20282;-71
2022/02/22 11:24:49;;;;;;;5.70;3.67;;;;;;;8.97;58.70;94204.28;4934059;29;20645;-72
2022/02/22 11:27:38;;;;;;;4.93;3.50;;;;;;;9.57;56.82;94192.16;4951779;29;20291;-74
2022/02/22 11:30:15;;;;;;;4.07;3.50;;;;;;;9.07;57.56;94193.81;4951724;29;20196;-75